sensor_id;sensor_type;location;lat;lon;timestamp;temperature;humidity
41928;DHT22;27616;51.420;6.788;2022-07-06T00:01:43;17.30;88.10
41928;DHT22;27616;51.420;6.788;2022-07-06T00:04:09;17.30;88.30
41928;DHT22;27616;51.420;6.788;2022-07-06T00:06:35;17.20;88.60
41928;DHT22;27616;51.420;6.788;2022-07-06T00:09:02;17.20;88.60
41928;DHT22;27616;51.420;6.788;2022-07-06T00:11:28;17.20;88.70
41928;DHT22;27616;51.420;6.788;2022-07-06T00:13:56;17.20;89.00
41928;DHT22;27616;51.420;6.788;2022-07-06T00:16:22;17.20;88.70
41928;DHT22;27616;51.420;6.788;2022-07-06T00:18:48;17.20;88.70
41928;DHT22;27616;51.420;6.788;2022-07-06T00:21:15;17.10;88.80
41928;DHT22;27616;51.420;6.788;2022-07-06T00:23:41;17.10;89.10
41928;DHT22;27616;51.420;6.788;2022-07-06T00:26:07;17.10;89.20
41928;DHT22;27616;51.420;6.788;2022-07-06T00:28:33;17.10;89.20
41928;DHT22;27616;51.420;6.788;2022-07-06T00:30:59;17.10;89.40
41928;DHT22;27616;51.420;6.788;2022-07-06T00:33:25;17.00;89.40
41928;DHT22;27616;51.420;6.788;2022-07-06T00:35:50;17.10;89.20
41928;DHT22;27616;51.420;6.788;2022-07-06T00:38:17;17.00;89.20
41928;DHT22;27616;51.420;6.788;2022-07-06T00:40:42;17.00;89.40
41928;DHT22;27616;51.420;6.788;2022-07-06T00:43:08;17.00;89.60
41928;DHT22;27616;51.420;6.788;2022-07-06T00:45:34;17.00;89.60
41928;DHT22;27616;51.420;6.788;2022-07-06T00:48:00;17.00;90.10
41928;DHT22;27616;51.420;6.788;2022-07-06T00:50:26;17.00;89.40
41928;DHT22;27616;51.420;6.788;2022-07-06T00:52:54;17.00;89.50
41928;DHT22;27616;51.420;6.788;2022-07-06T00:55:26;17.00;89.40
41928;DHT22;27616;51.420;6.788;2022-07-06T00:57:53;16.90;89.40
41928;DHT22;27616;51.420;6.788;2022-07-06T01:00:21;16.90;89.40
41928;DHT22;27616;51.420;6.788;2022-07-06T01:02:49;16.80;89.50
41928;DHT22;27616;51.420;6.788;2022-07-06T01:05:16;16.80;89.70
41928;DHT22;27616;51.420;6.788;2022-07-06T01:07:43;16.80;89.70
41928;DHT22;27616;51.420;6.788;2022-07-06T01:10:12;16.80;89.80
41928;DHT22;27616;51.420;6.788;2022-07-06T01:12:40;16.80;89.90
41928;DHT22;27616;51.420;6.788;2022-07-06T01:15:17;16.80;90.00
41928;DHT22;27616;51.420;6.788;2022-07-06T01:17:44;16.80;90.00
41928;DHT22;27616;51.420;6.788;2022-07-06T01:20:18;16.70;90.10
41928;DHT22;27616;51.420;6.788;2022-07-06T01:22:46;16.70;90.20
41928;DHT22;27616;51.420;6.788;2022-07-06T01:25:12;16.70;90.20
41928;DHT22;27616;51.420;6.788;2022-07-06T01:27:40;16.70;90.30
41928;DHT22;27616;51.420;6.788;2022-07-06T01:30:12;16.70;90.30
41928;DHT22;27616;51.420;6.788;2022-07-06T01:32:38;16.70;90.20
41928;DHT22;27616;51.420;6.788;2022-07-06T01:35:06;16.70;90.20
41928;DHT22;27616;51.420;6.788;2022-07-06T01:37:32;16.70;90.30
41928;DHT22;27616;51.420;6.788;2022-07-06T01:39:59;16.70;90.40
41928;DHT22;27616;51.420;6.788;2022-07-06T01:42:26;16.70;90.30
41928;DHT22;27616;51.420;6.788;2022-07-06T01:44:52;16.70;90.40
41928;DHT22;27616;51.420;6.788;2022-07-06T01:47:19;16.70;90.40
41928;DHT22;27616;51.420;6.788;2022-07-06T01:49:46;16.60;90.60
41928;DHT22;27616;51.420;6.788;2022-07-06T01:52:24;16.60;90.50
41928;DHT22;27616;51.420;6.788;2022-07-06T01:54:50;16.60;90.50
41928;DHT22;27616;51.420;6.788;2022-07-06T01:57:16;16.60;90.60
41928;DHT22;27616;51.420;6.788;2022-07-06T01:59:42;16.50;90.70
41928;DHT22;27616;51.420;6.788;2022-07-06T02:02:08;16.50;90.80
41928;DHT22;27616;51.420;6.788;2022-07-06T02:04:33;16.50;90.90
41928;DHT22;27616;51.420;6.788;2022-07-06T02:07:00;16.50;90.90
41928;DHT22;27616;51.420;6.788;2022-07-06T02:09:27;16.50;90.90
41928;DHT22;27616;51.420;6.788;2022-07-06T02:11:53;16.50;91.00
41928;DHT22;27616;51.420;6.788;2022-07-06T02:14:19;16.50;91.00
41928;DHT22;27616;51.420;6.788;2022-07-06T02:16:47;16.50;91.20
41928;DHT22;27616;51.420;6.788;2022-07-06T02:19:17;16.50;91.20
41928;DHT22;27616;51.420;6.788;2022-07-06T02:21:44;16.50;91.30
41928;DHT22;27616;51.420;6.788;2022-07-06T02:24:12;16.50;91.30
41928;DHT22;27616;51.420;6.788;2022-07-06T02:26:39;16.40;91.40
41928;DHT22;27616;51.420;6.788;2022-07-06T02:29:05;16.40;91.40
41928;DHT22;27616;51.420;6.788;2022-07-06T02:31:31;16.40;91.50
41928;DHT22;27616;51.420;6.788;2022-07-06T02:33:57;16.40;91.50
41928;DHT22;27616;51.420;6.788;2022-07-06T02:36:23;16.40;91.60
41928;DHT22;27616;51.420;6.788;2022-07-06T02:38:48;16.40;91.70
41928;DHT22;27616;51.420;6.788;2022-07-06T02:41:15;16.40;91.70
41928;DHT22;27616;51.420;6.788;2022-07-06T02:43:41;16.40;91.70
41928;DHT22;27616;51.420;6.788;2022-07-06T02:46:07;16.40;91.80
41928;DHT22;27616;51.420;6.788;2022-07-06T02:48:34;16.40;91.80
41928;DHT22;27616;51.420;6.788;2022-07-06T02:51:00;16.40;91.80
41928;DHT22;27616;51.420;6.788;2022-07-06T02:53:27;16.40;91.90
41928;DHT22;27616;51.420;6.788;2022-07-06T02:55:54;16.30;91.90
41928;DHT22;27616;51.420;6.788;2022-07-06T02:58:20;16.30;92.00
41928;DHT22;27616;51.420;6.788;2022-07-06T03:00:50;16.30;92.10
41928;DHT22;27616;51.420;6.788;2022-07-06T03:03:19;16.20;92.20
41928;DHT22;27616;51.420;6.788;2022-07-06T03:05:45;16.20;92.30
41928;DHT22;27616;51.420;6.788;2022-07-06T03:08:12;16.10;92.40
41928;DHT22;27616;51.420;6.788;2022-07-06T03:10:40;16.10;92.50
41928;DHT22;27616;51.420;6.788;2022-07-06T03:13:06;16.10;92.50
41928;DHT22;27616;51.420;6.788;2022-07-06T03:15:33;16.20;92.50
41928;DHT22;27616;51.420;6.788;2022-07-06T03:17:59;16.10;92.60
41928;DHT22;27616;51.420;6.788;2022-07-06T03:20:25;16.10;92.60
41928;DHT22;27616;51.420;6.788;2022-07-06T03:22:51;16.10;92.60
41928;DHT22;27616;51.420;6.788;2022-07-06T03:25:18;16.10;92.60
41928;DHT22;27616;51.420;6.788;2022-07-06T03:27:44;16.10;92.60
41928;DHT22;27616;51.420;6.788;2022-07-06T03:30:12;16.00;92.70
41928;DHT22;27616;51.420;6.788;2022-07-06T03:32:40;16.00;92.70
41928;DHT22;27616;51.420;6.788;2022-07-06T03:35:07;15.90;92.90
41928;DHT22;27616;51.420;6.788;2022-07-06T03:37:33;15.90;92.80
41928;DHT22;27616;51.420;6.788;2022-07-06T03:39:59;15.80;93.00
41928;DHT22;27616;51.420;6.788;2022-07-06T03:42:25;15.80;93.10
41928;DHT22;27616;51.420;6.788;2022-07-06T03:44:51;15.80;93.10
41928;DHT22;27616;51.420;6.788;2022-07-06T03:47:17;15.80;93.20
41928;DHT22;27616;51.420;6.788;2022-07-06T03:49:44;15.80;93.20
41928;DHT22;27616;51.420;6.788;2022-07-06T03:52:10;15.80;93.30
41928;DHT22;27616;51.420;6.788;2022-07-06T03:54:42;15.70;93.40
41928;DHT22;27616;51.420;6.788;2022-07-06T03:57:09;15.80;93.50
41928;DHT22;27616;51.420;6.788;2022-07-06T03:59:37;15.70;93.50
41928;DHT22;27616;51.420;6.788;2022-07-06T04:02:03;15.70;93.60
41928;DHT22;27616;51.420;6.788;2022-07-06T04:04:28;15.80;93.50
41928;DHT22;27616;51.420;6.788;2022-07-06T04:06:55;15.80;93.50
41928;DHT22;27616;51.420;6.788;2022-07-06T04:09:20;15.80;93.50
41928;DHT22;27616;51.420;6.788;2022-07-06T04:11:48;15.80;93.50
41928;DHT22;27616;51.420;6.788;2022-07-06T04:14:14;15.80;93.60
41928;DHT22;27616;51.420;6.788;2022-07-06T04:16:39;15.80;93.70
41928;DHT22;27616;51.420;6.788;2022-07-06T04:19:06;15.80;93.70
41928;DHT22;27616;51.420;6.788;2022-07-06T04:21:34;15.70;93.80
41928;DHT22;27616;51.420;6.788;2022-07-06T04:24:00;15.70;93.90
41928;DHT22;27616;51.420;6.788;2022-07-06T04:26:27;15.70;94.00
41928;DHT22;27616;51.420;6.788;2022-07-06T04:28:53;15.70;94.00
41928;DHT22;27616;51.420;6.788;2022-07-06T04:31:20;15.70;93.90
41928;DHT22;27616;51.420;6.788;2022-07-06T04:33:48;15.80;93.90
41928;DHT22;27616;51.420;6.788;2022-07-06T04:36:14;15.80;93.80
41928;DHT22;27616;51.420;6.788;2022-07-06T04:38:43;15.90;93.90
41928;DHT22;27616;51.420;6.788;2022-07-06T04:41:10;15.90;93.70
41928;DHT22;27616;51.420;6.788;2022-07-06T04:43:39;15.90;93.70
41928;DHT22;27616;51.420;6.788;2022-07-06T04:46:25;16.00;93.80
41928;DHT22;27616;51.420;6.788;2022-07-06T04:48:55;16.00;93.70
41928;DHT22;27616;51.420;6.788;2022-07-06T04:51:26;16.00;93.60
41928;DHT22;27616;51.420;6.788;2022-07-06T04:53:52;16.00;93.80
41928;DHT22;27616;51.420;6.788;2022-07-06T04:56:19;16.00;93.80
41928;DHT22;27616;51.420;6.788;2022-07-06T04:58:45;16.00;93.70
41928;DHT22;27616;51.420;6.788;2022-07-06T05:01:14;16.10;93.80
41928;DHT22;27616;51.420;6.788;2022-07-06T05:03:40;16.10;93.60
41928;DHT22;27616;51.420;6.788;2022-07-06T05:06:08;16.10;93.50
41928;DHT22;27616;51.420;6.788;2022-07-06T05:08:34;16.10;93.60
41928;DHT22;27616;51.420;6.788;2022-07-06T05:11:00;16.20;93.60
41928;DHT22;27616;51.420;6.788;2022-07-06T05:13:26;16.20;93.60
41928;DHT22;27616;51.420;6.788;2022-07-06T05:15:52;16.20;93.50
41928;DHT22;27616;51.420;6.788;2022-07-06T05:18:21;16.30;93.50
41928;DHT22;27616;51.420;6.788;2022-07-06T05:20:48;16.30;93.40
41928;DHT22;27616;51.420;6.788;2022-07-06T05:23:14;16.30;93.30
41928;DHT22;27616;51.420;6.788;2022-07-06T05:25:40;16.30;93.50
41928;DHT22;27616;51.420;6.788;2022-07-06T05:28:06;16.20;93.40
41928;DHT22;27616;51.420;6.788;2022-07-06T05:30:32;16.30;93.40
41928;DHT22;27616;51.420;6.788;2022-07-06T05:32:57;16.30;93.40
41928;DHT22;27616;51.420;6.788;2022-07-06T05:35:23;16.40;93.40
41928;DHT22;27616;51.420;6.788;2022-07-06T05:37:50;16.40;93.50
41928;DHT22;27616;51.420;6.788;2022-07-06T05:40:16;16.40;93.50
41928;DHT22;27616;51.420;6.788;2022-07-06T05:42:42;16.40;93.50
41928;DHT22;27616;51.420;6.788;2022-07-06T05:45:08;16.40;93.30
41928;DHT22;27616;51.420;6.788;2022-07-06T05:47:34;16.40;93.20
41928;DHT22;27616;51.420;6.788;2022-07-06T05:50:19;16.50;93.20
41928;DHT22;27616;51.420;6.788;2022-07-06T05:52:57;16.50;93.10
41928;DHT22;27616;51.420;6.788;2022-07-06T05:55:24;16.60;93.00
41928;DHT22;27616;51.420;6.788;2022-07-06T05:57:50;16.60;93.00
41928;DHT22;27616;51.420;6.788;2022-07-06T06:00:17;16.60;92.90
41928;DHT22;27616;51.420;6.788;2022-07-06T06:02:48;16.70;93.40
41928;DHT22;27616;51.420;6.788;2022-07-06T06:05:17;16.70;93.70
41928;DHT22;27616;51.420;6.788;2022-07-06T06:07:56;16.80;93.30
41928;DHT22;27616;51.420;6.788;2022-07-06T06:10:25;16.90;93.00
41928;DHT22;27616;51.420;6.788;2022-07-06T06:12:53;16.90;92.80
41928;DHT22;27616;51.420;6.788;2022-07-06T06:15:19;17.00;92.60
41928;DHT22;27616;51.420;6.788;2022-07-06T06:18:16;17.10;92.40
41928;DHT22;27616;51.420;6.788;2022-07-06T06:20:45;17.10;92.20
41928;DHT22;27616;51.420;6.788;2022-07-06T06:23:11;17.20;91.80
41928;DHT22;27616;51.420;6.788;2022-07-06T06:25:38;17.20;92.30
41928;DHT22;27616;51.420;6.788;2022-07-06T06:28:06;17.20;92.10
41928;DHT22;27616;51.420;6.788;2022-07-06T06:30:33;17.20;92.60
41928;DHT22;27616;51.420;6.788;2022-07-06T06:33:27;17.20;92.40
41928;DHT22;27616;51.420;6.788;2022-07-06T06:36:02;17.20;91.90
41928;DHT22;27616;51.420;6.788;2022-07-06T06:38:28;17.20;91.70
41928;DHT22;27616;51.420;6.788;2022-07-06T06:40:55;17.20;91.90
41928;DHT22;27616;51.420;6.788;2022-07-06T06:43:21;17.20;91.60
41928;DHT22;27616;51.420;6.788;2022-07-06T06:46:16;17.20;91.50
41928;DHT22;27616;51.420;6.788;2022-07-06T06:49:17;17.20;91.70
41928;DHT22;27616;51.420;6.788;2022-07-06T06:54:51;17.20;91.80
41928;DHT22;27616;51.420;6.788;2022-07-06T06:57:17;17.20;91.70
41928;DHT22;27616;51.420;6.788;2022-07-06T06:59:42;17.20;91.60
41928;DHT22;27616;51.420;6.788;2022-07-06T07:02:08;17.30;91.40
41928;DHT22;27616;51.420;6.788;2022-07-06T07:04:34;17.30;91.50
41928;DHT22;27616;51.420;6.788;2022-07-06T07:07:00;17.40;91.40
41928;DHT22;27616;51.420;6.788;2022-07-06T07:09:26;17.40;91.20
41928;DHT22;27616;51.420;6.788;2022-07-06T07:11:52;17.50;91.20
41928;DHT22;27616;51.420;6.788;2022-07-06T07:14:18;17.50;91.20
41928;DHT22;27616;51.420;6.788;2022-07-06T07:16:44;17.50;90.80
41928;DHT22;27616;51.420;6.788;2022-07-06T07:19:10;17.50;90.90
41928;DHT22;27616;51.420;6.788;2022-07-06T07:21:36;17.60;90.30
41928;DHT22;27616;51.420;6.788;2022-07-06T07:24:02;17.70;90.00
41928;DHT22;27616;51.420;6.788;2022-07-06T07:26:28;17.60;90.10
41928;DHT22;27616;51.420;6.788;2022-07-06T07:28:54;17.60;90.00
41928;DHT22;27616;51.420;6.788;2022-07-06T07:31:20;17.60;90.00
41928;DHT22;27616;51.420;6.788;2022-07-06T07:33:46;17.60;90.10
41928;DHT22;27616;51.420;6.788;2022-07-06T07:36:12;17.60;90.40
41928;DHT22;27616;51.420;6.788;2022-07-06T07:38:38;17.60;90.40
41928;DHT22;27616;51.420;6.788;2022-07-06T07:41:04;17.60;90.50
41928;DHT22;27616;51.420;6.788;2022-07-06T07:43:31;17.60;90.90
41928;DHT22;27616;51.420;6.788;2022-07-06T07:45:57;17.60;91.00
41928;DHT22;27616;51.420;6.788;2022-07-06T07:48:23;17.70;91.00
41928;DHT22;27616;51.420;6.788;2022-07-06T07:50:49;17.70;90.60
41928;DHT22;27616;51.420;6.788;2022-07-06T07:53:15;17.70;90.80
41928;DHT22;27616;51.420;6.788;2022-07-06T07:55:41;17.80;90.30
41928;DHT22;27616;51.420;6.788;2022-07-06T07:58:07;17.80;89.70
41928;DHT22;27616;51.420;6.788;2022-07-06T08:00:33;17.80;88.40
41928;DHT22;27616;51.420;6.788;2022-07-06T08:02:59;17.80;89.20
41928;DHT22;27616;51.420;6.788;2022-07-06T08:05:26;17.80;89.60
41928;DHT22;27616;51.420;6.788;2022-07-06T08:07:52;17.80;89.40
41928;DHT22;27616;51.420;6.788;2022-07-06T08:10:19;17.80;88.70
41928;DHT22;27616;51.420;6.788;2022-07-06T08:12:45;17.80;89.00
41928;DHT22;27616;51.420;6.788;2022-07-06T08:15:11;17.80;89.00
41928;DHT22;27616;51.420;6.788;2022-07-06T08:17:37;17.80;89.30
41928;DHT22;27616;51.420;6.788;2022-07-06T08:20:05;17.80;88.50
41928;DHT22;27616;51.420;6.788;2022-07-06T08:22:31;17.80;88.10
41928;DHT22;27616;51.420;6.788;2022-07-06T08:24:57;17.80;86.90
41928;DHT22;27616;51.420;6.788;2022-07-06T08:27:23;17.90;86.80
41928;DHT22;27616;51.420;6.788;2022-07-06T08:29:49;18.00;86.10
41928;DHT22;27616;51.420;6.788;2022-07-06T08:32:15;18.10;88.60
41928;DHT22;27616;51.420;6.788;2022-07-06T08:34:41;18.10;87.40
41928;DHT22;27616;51.420;6.788;2022-07-06T08:37:09;18.10;86.50
41928;DHT22;27616;51.420;6.788;2022-07-06T08:39:35;18.10;87.10
41928;DHT22;27616;51.420;6.788;2022-07-06T08:42:02;18.10;87.20
41928;DHT22;27616;51.420;6.788;2022-07-06T08:44:29;18.00;86.80
41928;DHT22;27616;51.420;6.788;2022-07-06T08:46:57;18.00;87.10
41928;DHT22;27616;51.420;6.788;2022-07-06T08:49:24;18.00;85.70
41928;DHT22;27616;51.420;6.788;2022-07-06T08:51:51;18.00;86.30
41928;DHT22;27616;51.420;6.788;2022-07-06T08:54:18;18.00;86.80
41928;DHT22;27616;51.420;6.788;2022-07-06T08:56:47;18.00;87.20
41928;DHT22;27616;51.420;6.788;2022-07-06T08:59:13;18.00;87.40
41928;DHT22;27616;51.420;6.788;2022-07-06T09:01:39;18.00;85.90
41928;DHT22;27616;51.420;6.788;2022-07-06T09:04:06;18.00;85.40
41928;DHT22;27616;51.420;6.788;2022-07-06T09:06:33;18.00;86.60
41928;DHT22;27616;51.420;6.788;2022-07-06T09:09:01;18.10;83.40
41928;DHT22;27616;51.420;6.788;2022-07-06T09:11:30;18.20;83.30
41928;DHT22;27616;51.420;6.788;2022-07-06T09:13:57;18.20;83.70
41928;DHT22;27616;51.420;6.788;2022-07-06T09:16:27;18.20;83.70
41928;DHT22;27616;51.420;6.788;2022-07-06T09:18:54;18.20;83.60
41928;DHT22;27616;51.420;6.788;2022-07-06T09:21:26;18.20;83.70
41928;DHT22;27616;51.420;6.788;2022-07-06T09:23:56;18.20;84.50
41928;DHT22;27616;51.420;6.788;2022-07-06T09:26:23;18.20;83.80
41928;DHT22;27616;51.420;6.788;2022-07-06T09:28:49;18.20;83.70
41928;DHT22;27616;51.420;6.788;2022-07-06T09:31:15;18.10;83.80
41928;DHT22;27616;51.420;6.788;2022-07-06T09:34:19;18.20;84.00
41928;DHT22;27616;51.420;6.788;2022-07-06T09:36:49;18.10;82.00
41928;DHT22;27616;51.420;6.788;2022-07-06T09:39:27;18.10;82.50
41928;DHT22;27616;51.420;6.788;2022-07-06T09:44:28;18.10;80.10
41928;DHT22;27616;51.420;6.788;2022-07-06T09:47:00;18.10;78.60
41928;DHT22;27616;51.420;6.788;2022-07-06T09:49:27;18.10;80.70
41928;DHT22;27616;51.420;6.788;2022-07-06T09:51:56;18.20;79.70
41928;DHT22;27616;51.420;6.788;2022-07-06T09:54:23;18.30;77.50
41928;DHT22;27616;51.420;6.788;2022-07-06T09:56:50;18.40;78.20
41928;DHT22;27616;51.420;6.788;2022-07-06T09:59:22;18.50;78.70
41928;DHT22;27616;51.420;6.788;2022-07-06T10:01:52;18.50;78.90
41928;DHT22;27616;51.420;6.788;2022-07-06T10:04:18;18.50;78.40
41928;DHT22;27616;51.420;6.788;2022-07-06T10:06:46;18.50;78.30
41928;DHT22;27616;51.420;6.788;2022-07-06T10:09:13;18.50;78.40
41928;DHT22;27616;51.420;6.788;2022-07-06T10:11:42;18.50;78.40
41928;DHT22;27616;51.420;6.788;2022-07-06T10:14:10;18.50;76.40
41928;DHT22;27616;51.420;6.788;2022-07-06T10:16:38;18.60;75.90
41928;DHT22;27616;51.420;6.788;2022-07-06T10:19:08;18.70;74.90
41928;DHT22;27616;51.420;6.788;2022-07-06T10:21:36;18.80;74.90
41928;DHT22;27616;51.420;6.788;2022-07-06T10:24:08;18.90;73.90
41928;DHT22;27616;51.420;6.788;2022-07-06T10:26:34;18.90;74.20
41928;DHT22;27616;51.420;6.788;2022-07-06T10:29:05;19.00;74.80
41928;DHT22;27616;51.420;6.788;2022-07-06T10:31:33;19.00;74.20
41928;DHT22;27616;51.420;6.788;2022-07-06T10:34:06;19.00;74.40
41928;DHT22;27616;51.420;6.788;2022-07-06T10:36:37;19.10;75.10
41928;DHT22;27616;51.420;6.788;2022-07-06T10:39:03;19.10;75.50
41928;DHT22;27616;51.420;6.788;2022-07-06T10:41:49;19.10;77.00
41928;DHT22;27616;51.420;6.788;2022-07-06T10:44:18;19.10;77.40
41928;DHT22;27616;51.420;6.788;2022-07-06T10:49:18;19.30;76.20
41928;DHT22;27616;51.420;6.788;2022-07-06T10:51:44;19.30;76.10
41928;DHT22;27616;51.420;6.788;2022-07-06T10:54:10;19.30;75.60
41928;DHT22;27616;51.420;6.788;2022-07-06T10:56:42;19.40;77.10
41928;DHT22;27616;51.420;6.788;2022-07-06T10:59:18;19.40;75.50
41928;DHT22;27616;51.420;6.788;2022-07-06T11:02:15;19.40;75.50
41928;DHT22;27616;51.420;6.788;2022-07-06T11:04:43;19.40;74.70
41928;DHT22;27616;51.420;6.788;2022-07-06T11:07:12;19.50;74.10
41928;DHT22;27616;51.420;6.788;2022-07-06T11:09:38;19.50;75.10
41928;DHT22;27616;51.420;6.788;2022-07-06T11:12:14;19.50;75.30
41928;DHT22;27616;51.420;6.788;2022-07-06T11:14:40;19.50;74.40
41928;DHT22;27616;51.420;6.788;2022-07-06T11:17:09;19.50;73.90
41928;DHT22;27616;51.420;6.788;2022-07-06T11:19:36;19.50;74.20
41928;DHT22;27616;51.420;6.788;2022-07-06T11:22:09;19.50;74.60
41928;DHT22;27616;51.420;6.788;2022-07-06T11:24:40;19.50;74.80
41928;DHT22;27616;51.420;6.788;2022-07-06T11:27:06;19.50;75.10
41928;DHT22;27616;51.420;6.788;2022-07-06T11:29:33;19.60;74.80
41928;DHT22;27616;51.420;6.788;2022-07-06T11:32:06;19.60;74.50
41928;DHT22;27616;51.420;6.788;2022-07-06T11:34:38;19.70;75.00
41928;DHT22;27616;51.420;6.788;2022-07-06T11:37:07;19.80;74.30
41928;DHT22;27616;51.420;6.788;2022-07-06T11:39:36;19.80;74.20
41928;DHT22;27616;51.420;6.788;2022-07-06T11:42:03;19.80;75.60
41928;DHT22;27616;51.420;6.788;2022-07-06T11:44:32;19.80;74.90
41928;DHT22;27616;51.420;6.788;2022-07-06T11:46:59;19.80;74.80
41928;DHT22;27616;51.420;6.788;2022-07-06T11:49:28;19.80;75.10
41928;DHT22;27616;51.420;6.788;2022-07-06T11:51:54;19.70;75.70
41928;DHT22;27616;51.420;6.788;2022-07-06T11:54:21;19.80;76.70
41928;DHT22;27616;51.420;6.788;2022-07-06T11:56:58;19.80;76.70
41928;DHT22;27616;51.420;6.788;2022-07-06T11:59:36;19.80;76.70
41928;DHT22;27616;51.420;6.788;2022-07-06T12:02:05;19.80;75.80
41928;DHT22;27616;51.420;6.788;2022-07-06T12:04:32;19.80;75.50
41928;DHT22;27616;51.420;6.788;2022-07-06T12:07:04;19.80;75.70
41928;DHT22;27616;51.420;6.788;2022-07-06T12:09:31;19.80;75.10
41928;DHT22;27616;51.420;6.788;2022-07-06T12:11:57;19.70;75.20
41928;DHT22;27616;51.420;6.788;2022-07-06T12:14:23;19.80;74.90
41928;DHT22;27616;51.420;6.788;2022-07-06T12:16:50;19.80;74.30
41928;DHT22;27616;51.420;6.788;2022-07-06T12:19:16;19.80;73.90
41928;DHT22;27616;51.420;6.788;2022-07-06T12:21:45;19.90;73.50
41928;DHT22;27616;51.420;6.788;2022-07-06T12:24:23;19.90;73.70
41928;DHT22;27616;51.420;6.788;2022-07-06T12:26:51;20.00;73.20
41928;DHT22;27616;51.420;6.788;2022-07-06T12:29:18;20.00;73.40
41928;DHT22;27616;51.420;6.788;2022-07-06T12:31:55;20.00;73.80
41928;DHT22;27616;51.420;6.788;2022-07-06T12:34:22;20.10;73.40
41928;DHT22;27616;51.420;6.788;2022-07-06T12:36:54;20.10;72.90
41928;DHT22;27616;51.420;6.788;2022-07-06T12:39:22;20.20;74.40
41928;DHT22;27616;51.420;6.788;2022-07-06T12:41:50;20.20;73.30
41928;DHT22;27616;51.420;6.788;2022-07-06T12:44:21;20.20;72.90
41928;DHT22;27616;51.420;6.788;2022-07-06T12:46:49;20.30;73.10
41928;DHT22;27616;51.420;6.788;2022-07-06T12:49:22;20.30;73.00
41928;DHT22;27616;51.420;6.788;2022-07-06T12:54:18;20.50;71.80
41928;DHT22;27616;51.420;6.788;2022-07-06T12:57:06;20.50;72.10
41928;DHT22;27616;51.420;6.788;2022-07-06T12:59:37;20.60;71.80
41928;DHT22;27616;51.420;6.788;2022-07-06T13:02:05;20.80;71.40
41928;DHT22;27616;51.420;6.788;2022-07-06T13:04:32;20.80;71.70
41928;DHT22;27616;51.420;6.788;2022-07-06T13:06:59;20.90;71.00
41928;DHT22;27616;51.420;6.788;2022-07-06T13:09:25;20.90;70.20
41928;DHT22;27616;51.420;6.788;2022-07-06T13:11:51;20.90;70.10
41928;DHT22;27616;51.420;6.788;2022-07-06T13:14:18;20.90;70.60
41928;DHT22;27616;51.420;6.788;2022-07-06T13:16:45;20.80;71.20
41928;DHT22;27616;51.420;6.788;2022-07-06T13:19:12;20.70;71.50
41928;DHT22;27616;51.420;6.788;2022-07-06T13:21:38;20.70;71.00
41928;DHT22;27616;51.420;6.788;2022-07-06T13:24:05;20.70;71.40
41928;DHT22;27616;51.420;6.788;2022-07-06T13:26:31;20.70;71.50
41928;DHT22;27616;51.420;6.788;2022-07-06T13:29:08;20.80;71.60
41928;DHT22;27616;51.420;6.788;2022-07-06T13:31:36;20.80;70.90
41928;DHT22;27616;51.420;6.788;2022-07-06T13:34:02;20.80;70.60
41928;DHT22;27616;51.420;6.788;2022-07-06T13:36:28;20.80;70.60
41928;DHT22;27616;51.420;6.788;2022-07-06T13:38:54;20.80;70.50
41928;DHT22;27616;51.420;6.788;2022-07-06T13:41:20;20.80;70.30
41928;DHT22;27616;51.420;6.788;2022-07-06T13:43:46;20.80;70.30
41928;DHT22;27616;51.420;6.788;2022-07-06T13:46:12;20.80;70.40
41928;DHT22;27616;51.420;6.788;2022-07-06T13:48:38;20.80;70.10
41928;DHT22;27616;51.420;6.788;2022-07-06T13:51:04;20.90;69.50
41928;DHT22;27616;51.420;6.788;2022-07-06T13:53:30;21.00;69.30
41928;DHT22;27616;51.420;6.788;2022-07-06T13:55:57;21.00;69.00
41928;DHT22;27616;51.420;6.788;2022-07-06T13:58:24;20.90;69.40
41928;DHT22;27616;51.420;6.788;2022-07-06T14:00:49;20.90;69.80
41928;DHT22;27616;51.420;6.788;2022-07-06T14:03:15;21.00;69.90
41928;DHT22;27616;51.420;6.788;2022-07-06T14:05:42;21.10;69.30
41928;DHT22;27616;51.420;6.788;2022-07-06T14:08:07;21.20;69.30
41928;DHT22;27616;51.420;6.788;2022-07-06T14:10:33;21.20;68.40
41928;DHT22;27616;51.420;6.788;2022-07-06T14:12:59;21.40;68.90
41928;DHT22;27616;51.420;6.788;2022-07-06T14:15:25;21.70;69.00
41928;DHT22;27616;51.420;6.788;2022-07-06T14:17:51;22.00;66.70
41928;DHT22;27616;51.420;6.788;2022-07-06T14:20:17;22.40;66.70
41928;DHT22;27616;51.420;6.788;2022-07-06T14:22:44;22.90;65.30
41928;DHT22;27616;51.420;6.788;2022-07-06T14:25:10;23.50;64.50
41928;DHT22;27616;51.420;6.788;2022-07-06T14:27:36;24.30;62.10
41928;DHT22;27616;51.420;6.788;2022-07-06T14:30:03;24.80;60.60
41928;DHT22;27616;51.420;6.788;2022-07-06T14:32:29;24.80;60.30
41928;DHT22;27616;51.420;6.788;2022-07-06T14:34:55;24.60;60.40
41928;DHT22;27616;51.420;6.788;2022-07-06T14:37:20;24.20;60.90
41928;DHT22;27616;51.420;6.788;2022-07-06T14:39:46;24.10;61.70
41928;DHT22;27616;51.420;6.788;2022-07-06T14:42:14;24.30;61.40
41928;DHT22;27616;51.420;6.788;2022-07-06T14:44:40;24.30;60.50
41928;DHT22;27616;51.420;6.788;2022-07-06T14:47:06;24.40;60.20
41928;DHT22;27616;51.420;6.788;2022-07-06T14:49:32;24.50;60.90
41928;DHT22;27616;51.420;6.788;2022-07-06T14:51:58;24.60;60.90
41928;DHT22;27616;51.420;6.788;2022-07-06T14:54:25;24.80;60.60
41928;DHT22;27616;51.420;6.788;2022-07-06T14:56:51;24.90;60.20
41928;DHT22;27616;51.420;6.788;2022-07-06T14:59:17;24.80;61.10
41928;DHT22;27616;51.420;6.788;2022-07-06T15:01:43;24.60;60.20
41928;DHT22;27616;51.420;6.788;2022-07-06T15:04:09;24.50;60.70
41928;DHT22;27616;51.420;6.788;2022-07-06T15:06:35;24.40;61.40
41928;DHT22;27616;51.420;6.788;2022-07-06T15:09:02;24.30;61.00
41928;DHT22;27616;51.420;6.788;2022-07-06T15:11:32;24.20;62.10
41928;DHT22;27616;51.420;6.788;2022-07-06T15:13:58;23.90;61.50
41928;DHT22;27616;51.420;6.788;2022-07-06T15:16:24;23.60;62.20
41928;DHT22;27616;51.420;6.788;2022-07-06T15:18:51;23.20;63.00
41928;DHT22;27616;51.420;6.788;2022-07-06T15:21:17;22.90;64.00
41928;DHT22;27616;51.420;6.788;2022-07-06T15:23:43;22.80;64.90
41928;DHT22;27616;51.420;6.788;2022-07-06T15:26:08;22.70;65.10
41928;DHT22;27616;51.420;6.788;2022-07-06T15:28:34;22.70;65.40
41928;DHT22;27616;51.420;6.788;2022-07-06T15:31:00;22.80;65.30
41928;DHT22;27616;51.420;6.788;2022-07-06T15:33:26;22.80;65.40
41928;DHT22;27616;51.420;6.788;2022-07-06T15:35:52;22.80;64.90
41928;DHT22;27616;51.420;6.788;2022-07-06T15:38:20;22.70;65.30
41928;DHT22;27616;51.420;6.788;2022-07-06T15:40:46;22.70;65.90
41928;DHT22;27616;51.420;6.788;2022-07-06T15:43:17;22.60;65.90
41928;DHT22;27616;51.420;6.788;2022-07-06T15:45:43;22.60;65.60